sensor_id;sensor_type;location;lat;lon;timestamp;P1;durP1;ratioP1;P2;durP2;ratioP2
20894;SDS011;10607;42.066;24.742;2023-07-20T00:00:22;15.02;;;5.72;;
20894;SDS011;10607;42.066;24.742;2023-07-20T00:02:49;30.15;;;6.70;;
20894;SDS011;10607;42.066;24.742;2023-07-20T00:05:15;21.13;;;6.20;;
20894;SDS011;10607;42.066;24.742;2023-07-20T00:07:43;18.02;;;6.28;;
20894;SDS011;10607;42.066;24.742;2023-07-20T00:10:08;25.65;;;6.28;;
20894;SDS011;10607;42.066;24.742;2023-07-20T00:12:34;40.95;;;7.05;;
20894;SDS011;10607;42.066;24.742;2023-07-20T00:14:59;14.95;;;5.85;;
20894;SDS011;10607;42.066;24.742;2023-07-20T00:17:24;20.20;;;5.72;;
20894;SDS011;10607;42.066;24.742;2023-07-20T00:19:50;20.20;;;6.03;;
20894;SDS011;10607;42.066;24.742;2023-07-20T00:22:15;16.10;;;5.18;;
20894;SDS011;10607;42.066;24.742;2023-07-20T00:24:40;22.75;;;5.57;;
20894;SDS011;10607;42.066;24.742;2023-07-20T00:27:05;17.65;;;5.50;;
20894;SDS011;10607;42.066;24.742;2023-07-20T00:29:31;19.85;;;4.80;;
20894;SDS011;10607;42.066;24.742;2023-07-20T00:31:56;11.57;;;5.45;;
20894;SDS011;10607;42.066;24.742;2023-07-20T00:34:21;10.13;;;5.10;;
20894;SDS011;10607;42.066;24.742;2023-07-20T00:36:47;14.75;;;5.18;;
20894;SDS011;10607;42.066;24.742;2023-07-20T00:39:14;14.45;;;5.57;;
20894;SDS011;10607;42.066;24.742;2023-07-20T00:41:39;18.92;;;5.45;;
20894;SDS011;10607;42.066;24.742;2023-07-20T00:44:04;12.50;;;5.32;;
20894;SDS011;10607;42.066;24.742;2023-07-20T00:46:29;16.30;;;5.30;;
20894;SDS011;10607;42.066;24.742;2023-07-20T00:48:57;22.17;;;5.97;;
20894;SDS011;10607;42.066;24.742;2023-07-20T00:51:22;12.25;;;4.78;;
20894;SDS011;10607;42.066;24.742;2023-07-20T00:53:48;14.45;;;5.03;;
20894;SDS011;10607;42.066;24.742;2023-07-20T00:56:14;19.17;;;6.15;;
20894;SDS011;10607;42.066;24.742;2023-07-20T00:58:39;12.93;;;5.32;;
20894;SDS011;10607;42.066;24.742;2023-07-20T01:01:05;13.65;;;5.25;;
20894;SDS011;10607;42.066;24.742;2023-07-20T01:03:30;13.18;;;4.95;;
20894;SDS011;10607;42.066;24.742;2023-07-20T01:11:13;20.27;;;4.70;;
20894;SDS011;10607;42.066;24.742;2023-07-20T01:13:41;17.95;;;5.45;;
20894;SDS011;10607;42.066;24.742;2023-07-20T01:16:07;12.43;;;5.47;;
20894;SDS011;10607;42.066;24.742;2023-07-20T01:18:33;13.13;;;5.38;;
20894;SDS011;10607;42.066;24.742;2023-07-20T01:20:59;9.73;;;5.10;;
20894;SDS011;10607;42.066;24.742;2023-07-20T01:28:30;17.08;;;5.30;;
20894;SDS011;10607;42.066;24.742;2023-07-20T01:33:34;16.52;;;5.38;;
20894;SDS011;10607;42.066;24.742;2023-07-20T01:36:00;14.75;;;5.47;;
20894;SDS011;10607;42.066;24.742;2023-07-20T01:38:26;11.82;;;5.25;;
20894;SDS011;10607;42.066;24.742;2023-07-20T01:40:52;13.52;;;5.40;;
20894;SDS011;10607;42.066;24.742;2023-07-20T01:43:18;9.10;;;5.05;;
20894;SDS011;10607;42.066;24.742;2023-07-20T01:45:43;13.10;;;5.18;;
20894;SDS011;10607;42.066;24.742;2023-07-20T01:48:08;17.75;;;5.72;;
20894;SDS011;10607;42.066;24.742;2023-07-20T01:50:34;13.85;;;5.50;;
20894;SDS011;10607;42.066;24.742;2023-07-20T01:52:59;13.02;;;5.22;;
20894;SDS011;10607;42.066;24.742;2023-07-20T01:55:25;9.32;;;5.22;;
20894;SDS011;10607;42.066;24.742;2023-07-20T01:57:50;16.15;;;5.30;;
20894;SDS011;10607;42.066;24.742;2023-07-20T02:00:15;14.60;;;5.10;;
20894;SDS011;10607;42.066;24.742;2023-07-20T02:02:41;10.30;;;5.47;;
20894;SDS011;10607;42.066;24.742;2023-07-20T02:05:07;8.93;;;4.90;;
20894;SDS011;10607;42.066;24.742;2023-07-20T02:07:33;13.02;;;5.43;;
20894;SDS011;10607;42.066;24.742;2023-07-20T02:09:58;14.38;;;5.15;;
20894;SDS011;10607;42.066;24.742;2023-07-20T02:12:23;9.80;;;5.70;;
20894;SDS011;10607;42.066;24.742;2023-07-20T02:14:48;18.77;;;5.70;;
20894;SDS011;10607;42.066;24.742;2023-07-20T02:17:15;25.05;;;5.65;;
20894;SDS011;10607;42.066;24.742;2023-07-20T02:19:40;19.95;;;5.20;;
20894;SDS011;10607;42.066;24.742;2023-07-20T02:22:06;15.02;;;5.20;;
20894;SDS011;10607;42.066;24.742;2023-07-20T02:24:32;14.50;;;5.65;;
20894;SDS011;10607;42.066;24.742;2023-07-20T02:26:57;11.90;;;5.75;;
20894;SDS011;10607;42.066;24.742;2023-07-20T02:29:22;8.50;;;5.22;;
20894;SDS011;10607;42.066;24.742;2023-07-20T02:31:48;19.05;;;4.90;;
20894;SDS011;10607;42.066;24.742;2023-07-20T02:34:13;12.13;;;5.40;;
20894;SDS011;10607;42.066;24.742;2023-07-20T02:36:38;10.45;;;5.50;;
20894;SDS011;10607;42.066;24.742;2023-07-20T02:39:04;11.85;;;5.32;;
20894;SDS011;10607;42.066;24.742;2023-07-20T02:41:30;14.63;;;5.18;;
20894;SDS011;10607;42.066;24.742;2023-07-20T02:43:55;9.85;;;5.82;;
20894;SDS011;10607;42.066;24.742;2023-07-20T02:46:21;11.43;;;4.93;;
20894;SDS011;10607;42.066;24.742;2023-07-20T02:48:47;10.45;;;5.35;;
20894;SDS011;10607;42.066;24.742;2023-07-20T02:51:12;7.55;;;5.45;;
20894;SDS011;10607;42.066;24.742;2023-07-20T02:53:37;8.40;;;5.15;;
20894;SDS011;10607;42.066;24.742;2023-07-20T02:56:03;19.10;;;6.05;;
20894;SDS011;10607;42.066;24.742;2023-07-20T02:58:28;15.98;;;5.55;;
20894;SDS011;10607;42.066;24.742;2023-07-20T03:00:54;19.85;;;4.97;;
20894;SDS011;10607;42.066;24.742;2023-07-20T03:03:19;12.73;;;5.60;;
20894;SDS011;10607;42.066;24.742;2023-07-20T03:05:44;12.40;;;5.07;;
20894;SDS011;10607;42.066;24.742;2023-07-20T03:08:10;7.40;;;4.90;;
20894;SDS011;10607;42.066;24.742;2023-07-20T03:10:39;10.68;;;4.63;;
20894;SDS011;10607;42.066;24.742;2023-07-20T03:13:05;10.45;;;4.70;;
20894;SDS011;10607;42.066;24.742;2023-07-20T03:15:31;8.32;;;4.97;;
20894;SDS011;10607;42.066;24.742;2023-07-20T03:17:56;11.93;;;5.30;;
20894;SDS011;10607;42.066;24.742;2023-07-20T03:20:23;8.73;;;4.57;;
20894;SDS011;10607;42.066;24.742;2023-07-20T03:22:48;10.32;;;4.57;;
20894;SDS011;10607;42.066;24.742;2023-07-20T03:25:15;9.02;;;4.63;;
20894;SDS011;10607;42.066;24.742;2023-07-20T03:27:40;9.70;;;4.40;;
20894;SDS011;10607;42.066;24.742;2023-07-20T03:30:06;12.10;;;4.85;;
20894;SDS011;10607;42.066;24.742;2023-07-20T03:32:32;12.85;;;4.63;;
20894;SDS011;10607;42.066;24.742;2023-07-20T03:34:57;23.13;;;5.53;;
20894;SDS011;10607;42.066;24.742;2023-07-20T03:37:22;13.93;;;5.43;;
20894;SDS011;10607;42.066;24.742;2023-07-20T03:39:48;10.20;;;4.38;;
20894;SDS011;10607;42.066;24.742;2023-07-20T03:42:13;10.48;;;4.53;;
20894;SDS011;10607;42.066;24.742;2023-07-20T03:44:39;21.85;;;4.43;;
20894;SDS011;10607;42.066;24.742;2023-07-20T03:47:04;11.88;;;4.57;;
20894;SDS011;10607;42.066;24.742;2023-07-20T03:49:30;8.90;;;4.53;;
20894;SDS011;10607;42.066;24.742;2023-07-20T03:51:55;11.15;;;4.40;;
20894;SDS011;10607;42.066;24.742;2023-07-20T03:54:20;14.23;;;4.82;;
20894;SDS011;10607;42.066;24.742;2023-07-20T03:56:46;11.80;;;4.63;;
20894;SDS011;10607;42.066;24.742;2023-07-20T03:59:11;13.80;;;4.38;;
20894;SDS011;10607;42.066;24.742;2023-07-20T04:01:36;11.13;;;5.03;;
20894;SDS011;10607;42.066;24.742;2023-07-20T04:04:05;10.18;;;5.22;;
20894;SDS011;10607;42.066;24.742;2023-07-20T04:06:30;15.00;;;4.40;;
20894;SDS011;10607;42.066;24.742;2023-07-20T04:08:56;13.07;;;4.93;;
20894;SDS011;10607;42.066;24.742;2023-07-20T04:11:21;12.15;;;4.47;;
20894;SDS011;10607;42.066;24.742;2023-07-20T04:13:46;9.40;;;4.30;;
20894;SDS011;10607;42.066;24.742;2023-07-20T04:16:12;13.43;;;4.13;;
20894;SDS011;10607;42.066;24.742;2023-07-20T04:18:37;9.32;;;4.75;;
20894;SDS011;10607;42.066;24.742;2023-07-20T04:21:02;9.40;;;4.65;;
20894;SDS011;10607;42.066;24.742;2023-07-20T04:23:27;10.93;;;4.70;;
20894;SDS011;10607;42.066;24.742;2023-07-20T04:25:53;12.27;;;4.90;;
20894;SDS011;10607;42.066;24.742;2023-07-20T04:28:18;12.90;;;4.22;;
20894;SDS011;10607;42.066;24.742;2023-07-20T04:30:43;7.50;;;4.20;;
20894;SDS011;10607;42.066;24.742;2023-07-20T04:33:08;7.43;;;4.43;;
20894;SDS011;10607;42.066;24.742;2023-07-20T04:35:53;12.27;;;4.80;;
20894;SDS011;10607;42.066;24.742;2023-07-20T04:38:18;13.45;;;4.97;;
20894;SDS011;10607;42.066;24.742;2023-07-20T04:40:44;26.65;;;5.30;;
20894;SDS011;10607;42.066;24.742;2023-07-20T04:43:10;11.30;;;4.53;;
20894;SDS011;10607;42.066;24.742;2023-07-20T04:45:36;9.95;;;4.40;;
20894;SDS011;10607;42.066;24.742;2023-07-20T04:48:01;13.63;;;4.65;;
20894;SDS011;10607;42.066;24.742;2023-07-20T04:50:26;21.77;;;5.28;;
20894;SDS011;10607;42.066;24.742;2023-07-20T04:52:51;22.52;;;5.70;;
20894;SDS011;10607;42.066;24.742;2023-07-20T04:55:18;13.85;;;5.60;;
20894;SDS011;10607;42.066;24.742;2023-07-20T04:57:43;21.75;;;6.60;;
20894;SDS011;10607;42.066;24.742;2023-07-20T05:00:09;28.88;;;7.43;;
20894;SDS011;10607;42.066;24.742;2023-07-20T05:02:36;28.50;;;8.30;;
20894;SDS011;10607;42.066;24.742;2023-07-20T05:05:02;20.92;;;7.47;;
20894;SDS011;10607;42.066;24.742;2023-07-20T05:07:30;29.25;;;9.40;;
20894;SDS011;10607;42.066;24.742;2023-07-20T05:09:56;33.03;;;10.30;;
20894;SDS011;10607;42.066;24.742;2023-07-20T05:12:21;28.33;;;10.02;;
20894;SDS011;10607;42.066;24.742;2023-07-20T05:14:46;37.22;;;10.02;;
20894;SDS011;10607;42.066;24.742;2023-07-20T05:17:12;38.28;;;10.75;;
20894;SDS011;10607;42.066;24.742;2023-07-20T05:19:37;34.17;;;10.50;;
20894;SDS011;10607;42.066;24.742;2023-07-20T05:22:02;27.50;;;9.32;;
20894;SDS011;10607;42.066;24.742;2023-07-20T05:24:29;37.35;;;10.70;;
20894;SDS011;10607;42.066;24.742;2023-07-20T05:26:54;35.17;;;10.10;;
20894;SDS011;10607;42.066;24.742;2023-07-20T05:29:19;31.70;;;10.30;;
20894;SDS011;10607;42.066;24.742;2023-07-20T05:31:45;32.83;;;10.77;;
20894;SDS011;10607;42.066;24.742;2023-07-20T05:34:10;27.83;;;10.48;;
20894;SDS011;10607;42.066;24.742;2023-07-20T05:36:35;44.28;;;11.15;;
20894;SDS011;10607;42.066;24.742;2023-07-20T05:39:01;39.35;;;10.27;;
20894;SDS011;10607;42.066;24.742;2023-07-20T05:41:27;37.60;;;10.70;;
20894;SDS011;10607;42.066;24.742;2023-07-20T05:43:52;35.35;;;9.52;;
20894;SDS011;10607;42.066;24.742;2023-07-20T05:46:17;32.92;;;9.23;;
20894;SDS011;10607;42.066;24.742;2023-07-20T05:48:43;23.75;;;7.88;;
20894;SDS011;10607;42.066;24.742;2023-07-20T05:51:08;21.42;;;7.53;;
20894;SDS011;10607;42.066;24.742;2023-07-20T05:53:34;21.00;;;7.32;;
20894;SDS011;10607;42.066;24.742;2023-07-20T05:56:00;23.25;;;7.88;;
20894;SDS011;10607;42.066;24.742;2023-07-20T05:58:25;19.60;;;8.13;;
20894;SDS011;10607;42.066;24.742;2023-07-20T06:00:51;28.13;;;8.23;;
20894;SDS011;10607;42.066;24.742;2023-07-20T06:03:16;25.35;;;8.07;;
20894;SDS011;10607;42.066;24.742;2023-07-20T06:05:42;17.63;;;7.60;;
20894;SDS011;10607;42.066;24.742;2023-07-20T06:08:07;18.50;;;7.32;;
20894;SDS011;10607;42.066;24.742;2023-07-20T06:10:33;23.70;;;7.13;;
20894;SDS011;10607;42.066;24.742;2023-07-20T06:12:58;19.77;;;6.97;;
20894;SDS011;10607;42.066;24.742;2023-07-20T06:15:32;16.73;;;6.30;;
20894;SDS011;10607;42.066;24.742;2023-07-20T06:17:59;15.88;;;6.50;;
20894;SDS011;10607;42.066;24.742;2023-07-20T06:20:26;14.95;;;6.32;;
20894;SDS011;10607;42.066;24.742;2023-07-20T06:22:51;12.85;;;5.97;;
20894;SDS011;10607;42.066;24.742;2023-07-20T06:25:16;22.05;;;6.38;;
20894;SDS011;10607;42.066;24.742;2023-07-20T06:27:42;19.60;;;5.78;;
20894;SDS011;10607;42.066;24.742;2023-07-20T06:30:07;15.07;;;5.90;;
20894;SDS011;10607;42.066;24.742;2023-07-20T06:32:33;10.10;;;6.20;;
20894;SDS011;10607;42.066;24.742;2023-07-20T06:34:58;15.18;;;6.43;;
20894;SDS011;10607;42.066;24.742;2023-07-20T06:37:23;13.07;;;5.85;;
20894;SDS011;10607;42.066;24.742;2023-07-20T06:39:49;14.77;;;6.43;;
20894;SDS011;10607;42.066;24.742;2023-07-20T06:42:14;13.02;;;5.63;;
20894;SDS011;10607;42.066;24.742;2023-07-20T06:44:39;10.77;;;5.63;;
20894;SDS011;10607;42.066;24.742;2023-07-20T06:47:05;13.48;;;6.78;;
20894;SDS011;10607;42.066;24.742;2023-07-20T06:49:30;19.77;;;5.90;;
20894;SDS011;10607;42.066;24.742;2023-07-20T06:51:56;18.40;;;5.80;;
20894;SDS011;10607;42.066;24.742;2023-07-20T06:54:21;19.33;;;6.53;;
20894;SDS011;10607;42.066;24.742;2023-07-20T06:56:47;18.00;;;6.15;;
20894;SDS011;10607;42.066;24.742;2023-07-20T06:59:12;15.32;;;6.20;;
20894;SDS011;10607;42.066;24.742;2023-07-20T07:01:38;17.05;;;5.78;;
20894;SDS011;10607;42.066;24.742;2023-07-20T07:04:04;11.10;;;5.72;;
20894;SDS011;10607;42.066;24.742;2023-07-20T07:06:30;16.85;;;5.88;;
20894;SDS011;10607;42.066;24.742;2023-07-20T07:08:55;18.02;;;5.95;;
20894;SDS011;10607;42.066;24.742;2023-07-20T07:11:21;14.00;;;5.25;;
20894;SDS011;10607;42.066;24.742;2023-07-20T07:13:46;13.52;;;5.35;;
20894;SDS011;10607;42.066;24.742;2023-07-20T07:16:14;16.38;;;5.97;;
20894;SDS011;10607;42.066;24.742;2023-07-20T07:18:43;15.52;;;5.53;;
20894;SDS011;10607;42.066;24.742;2023-07-20T07:21:09;18.92;;;5.47;;
20894;SDS011;10607;42.066;24.742;2023-07-20T07:23:34;13.75;;;6.10;;
20894;SDS011;10607;42.066;24.742;2023-07-20T07:25:59;17.08;;;5.60;;
20894;SDS011;10607;42.066;24.742;2023-07-20T07:28:24;9.25;;;4.63;;
20894;SDS011;10607;42.066;24.742;2023-07-20T07:30:50;12.93;;;5.68;;
20894;SDS011;10607;42.066;24.742;2023-07-20T07:33:15;12.77;;;5.57;;
20894;SDS011;10607;42.066;24.742;2023-07-20T07:35:40;18.92;;;5.78;;
20894;SDS011;10607;42.066;24.742;2023-07-20T07:38:06;13.85;;;5.90;;
20894;SDS011;10607;42.066;24.742;2023-07-20T07:40:31;17.50;;;5.68;;
20894;SDS011;10607;42.066;24.742;2023-07-20T07:42:57;8.10;;;5.43;;
20894;SDS011;10607;42.066;24.742;2023-07-20T07:45:22;24.17;;;6.22;;
20894;SDS011;10607;42.066;24.742;2023-07-20T07:47:47;18.35;;;6.03;;
20894;SDS011;10607;42.066;24.742;2023-07-20T07:50:13;19.52;;;6.22;;
20894;SDS011;10607;42.066;24.742;2023-07-20T07:52:38;15.90;;;5.63;;
20894;SDS011;10607;42.066;24.742;2023-07-20T07:55:03;17.65;;;6.07;;
20894;SDS011;10607;42.066;24.742;2023-07-20T07:57:29;11.45;;;5.35;;
20894;SDS011;10607;42.066;24.742;2023-07-20T07:59:54;13.65;;;6.10;;
20894;SDS011;10607;42.066;24.742;2023-07-20T08:02:19;16.33;;;5.82;;
20894;SDS011;10607;42.066;24.742;2023-07-20T08:04:45;18.10;;;5.38;;
20894;SDS011;10607;42.066;24.742;2023-07-20T08:07:10;18.65;;;6.82;;
20894;SDS011;10607;42.066;24.742;2023-07-20T08:09:35;19.80;;;6.30;;
20894;SDS011;10607;42.066;24.742;2023-07-20T08:12:00;24.05;;;5.82;;
20894;SDS011;10607;42.066;24.742;2023-07-20T08:14:26;12.80;;;6.25;;
20894;SDS011;10607;42.066;24.742;2023-07-20T08:16:51;23.27;;;6.32;;
20894;SDS011;10607;42.066;24.742;2023-07-20T08:19:18;15.57;;;6.25;;
20894;SDS011;10607;42.066;24.742;2023-07-20T08:21:43;16.35;;;6.15;;
20894;SDS011;10607;42.066;24.742;2023-07-20T08:24:08;17.58;;;6.30;;
20894;SDS011;10607;42.066;24.742;2023-07-20T08:26:34;12.27;;;6.13;;
20894;SDS011;10607;42.066;24.742;2023-07-20T08:28:59;14.25;;;6.38;;
20894;SDS011;10607;42.066;24.742;2023-07-20T08:31:24;16.52;;;7.50;;
20894;SDS011;10607;42.066;24.742;2023-07-20T08:33:49;23.92;;;6.60;;
20894;SDS011;10607;42.066;24.742;2023-07-20T08:36:15;17.88;;;6.15;;
20894;SDS011;10607;42.066;24.742;2023-07-20T08:38:41;13.32;;;6.47;;
20894;SDS011;10607;42.066;24.742;2023-07-20T08:41:06;27.40;;;6.80;;
20894;SDS011;10607;42.066;24.742;2023-07-20T08:43:31;18.52;;;6.40;;
20894;SDS011;10607;42.066;24.742;2023-07-20T08:45:58;13.88;;;5.68;;
20894;SDS011;10607;42.066;24.742;2023-07-20T08:48:24;10.77;;;6.32;;
20894;SDS011;10607;42.066;24.742;2023-07-20T08:50:50;25.35;;;7.13;;
20894;SDS011;10607;42.066;24.742;2023-07-20T08:53:16;13.70;;;6.90;;
20894;SDS011;10607;42.066;24.742;2023-07-20T08:55:42;15.45;;;6.22;;
20894;SDS011;10607;42.066;24.742;2023-07-20T08:58:09;19.85;;;7.03;;
20894;SDS011;10607;42.066;24.742;2023-07-20T09:00:36;14.75;;;6.88;;
20894;SDS011;10607;42.066;24.742;2023-07-20T09:03:02;18.77;;;7.03;;
20894;SDS011;10607;42.066;24.742;2023-07-20T09:05:27;15.73;;;5.90;;
20894;SDS011;10607;42.066;24.742;2023-07-20T09:07:53;18.45;;;6.72;;
20894;SDS011;10607;42.066;24.742;2023-07-20T09:10:21;16.17;;;6.28;;
20894;SDS011;10607;42.066;24.742;2023-07-20T09:12:47;9.90;;;6.20;;
20894;SDS011;10607;42.066;24.742;2023-07-20T09:15:12;17.48;;;6.47;;
20894;SDS011;10607;42.066;24.742;2023-07-20T09:17:38;19.67;;;7.25;;
20894;SDS011;10607;42.066;24.742;2023-07-20T09:20:03;14.05;;;6.68;;
20894;SDS011;10607;42.066;24.742;2023-07-20T09:22:35;17.55;;;6.82;;
20894;SDS011;10607;42.066;24.742;2023-07-20T09:25:01;16.63;;;6.45;;
20894;SDS011;10607;42.066;24.742;2023-07-20T09:27:39;23.08;;;6.63;;
20894;SDS011;10607;42.066;24.742;2023-07-20T09:30:05;14.63;;;7.53;;
20894;SDS011;10607;42.066;24.742;2023-07-20T09:32:41;13.88;;;6.65;;
20894;SDS011;10607;42.066;24.742;2023-07-20T09:35:12;17.55;;;6.80;;
20894;SDS011;10607;42.066;24.742;2023-07-20T09:37:37;14.75;;;6.85;;
20894;SDS011;10607;42.066;24.742;2023-07-20T09:40:03;21.02;;;7.45;;
20894;SDS011;10607;42.066;24.742;2023-07-20T09:42:31;14.23;;;7.05;;
20894;SDS011;10607;42.066;24.742;2023-07-20T09:44:56;21.50;;;6.82;;
20894;SDS011;10607;42.066;24.742;2023-07-20T09:47:22;26.60;;;6.80;;
20894;SDS011;10607;42.066;24.742;2023-07-20T09:49:48;16.50;;;6.40;;
20894;SDS011;10607;42.066;24.742;2023-07-20T09:52:13;13.60;;;7.00;;
20894;SDS011;10607;42.066;24.742;2023-07-20T09:54:40;19.60;;;6.75;;
20894;SDS011;10607;42.066;24.742;2023-07-20T09:57:08;14.65;;;7.25;;
20894;SDS011;10607;42.066;24.742;2023-07-20T09:59:34;12.20;;;7.03;;
20894;SDS011;10607;42.066;24.742;2023-07-20T10:01:59;17.42;;;6.82;;
20894;SDS011;10607;42.066;24.742;2023-07-20T10:04:26;14.88;;;7.28;;
20894;SDS011;10607;42.066;24.742;2023-07-20T10:06:54;36.05;;;7.65;;
20894;SDS011;10607;42.066;24.742;2023-07-20T10:09:20;20.25;;;6.85;;
20894;SDS011;10607;42.066;24.742;2023-07-20T10:11:49;25.40;;;6.53;;
20894;SDS011;10607;42.066;24.742;2023-07-20T10:14:16;14.27;;;6.03;;
20894;SDS011;10607;42.066;24.742;2023-07-20T10:16:46;16.52;;;6.95;;
20894;SDS011;10607;42.066;24.742;2023-07-20T10:19:17;14.80;;;6.13;;
20894;SDS011;10607;42.066;24.742;2023-07-20T10:21:50;14.40;;;6.72;;
20894;SDS011;10607;42.066;24.742;2023-07-20T10:24:16;13.50;;;6.05;;
20894;SDS011;10607;42.066;24.742;2023-07-20T10:26:42;18.88;;;6.18;;
20894;SDS011;10607;42.066;24.742;2023-07-20T10:29:08;25.05;;;7.75;;
20894;SDS011;10607;42.066;24.742;2023-07-20T10:31:33;14.75;;;6.40;;
20894;SDS011;10607;42.066;24.742;2023-07-20T10:33:59;15.18;;;5.97;;
20894;SDS011;10607;42.066;24.742;2023-07-20T10:36:25;12.88;;;6.40;;
20894;SDS011;10607;42.066;24.742;2023-07-20T10:38:53;11.07;;;6.85;;
20894;SDS011;10607;42.066;24.742;2023-07-20T10:41:20;14.70;;;6.30;;
20894;SDS011;10607;42.066;24.742;2023-07-20T10:43:46;16.75;;;6.60;;
20894;SDS011;10607;42.066;24.742;2023-07-20T10:46:12;12.65;;;6.82;;
20894;SDS011;10607;42.066;24.742;2023-07-20T10:48:59;11.98;;;5.78;;
20894;SDS011;10607;42.066;24.742;2023-07-20T10:51:23;15.50;;;6.50;;
20894;SDS011;10607;42.066;24.742;2023-07-20T10:53:48;19.30;;;6.55;;
20894;SDS011;10607;42.066;24.742;2023-07-20T10:56:15;17.92;;;6.93;;
20894;SDS011;10607;42.066;24.742;2023-07-20T10:58:44;15.52;;;6.22;;
20894;SDS011;10607;42.066;24.742;2023-07-20T11:01:11;13.82;;;5.97;;
20894;SDS011;10607;42.066;24.742;2023-07-20T11:03:38;9.75;;;5.82;;
20894;SDS011;10607;42.066;24.742;2023-07-20T11:08:49;17.15;;;6.25;;
20894;SDS011;10607;42.066;24.742;2023-07-20T11:14:01;16.85;;;6.25;;
20894;SDS011;10607;42.066;24.742;2023-07-20T11:19:02;12.10;;;6.28;;
20894;SDS011;10607;42.066;24.742;2023-07-20T11:21:28;14.38;;;6.22;;
20894;SDS011;10607;42.066;24.742;2023-07-20T11:23:53;10.55;;;6.18;;
20894;SDS011;10607;42.066;24.742;2023-07-20T11:26:20;14.60;;;5.72;;
20894;SDS011;10607;42.066;24.742;2023-07-20T11:28:49;13.65;;;6.13;;
20894;SDS011;10607;42.066;24.742;2023-07-20T11:31:14;12.25;;;5.18;;
20894;SDS011;10607;42.066;24.742;2023-07-20T11:33:41;15.05;;;5.78;;
20894;SDS011;10607;42.066;24.742;2023-07-20T11:36:08;14.30;;;5.78;;
20894;SDS011;10607;42.066;24.742;2023-07-20T11:38:33;15.82;;;5.60;;
20894;SDS011;10607;42.066;24.742;2023-07-20T11:40:58;16.05;;;5.68;;
20894;SDS011;10607;42.066;24.742;2023-07-20T11:43:23;13.07;;;5.43;;
20894;SDS011;10607;42.066;24.742;2023-07-20T11:45:49;13.15;;;5.30;;
20894;SDS011;10607;42.066;24.742;2023-07-20T11:48:15;12.65;;;5.22;;
20894;SDS011;10607;42.066;24.742;2023-07-20T11:50:41;12.45;;;5.93;;
20894;SDS011;10607;42.066;24.742;2023-07-20T11:53:06;11.68;;;4.97;;
20894;SDS011;10607;42.066;24.742;2023-07-20T11:55:32;14.90;;;6.22;;
20894;SDS011;10607;42.066;24.742;2023-07-20T11:58:04;13.75;;;5.10;;
20894;SDS011;10607;42.066;24.742;2023-07-20T12:00:30;17.58;;;5.82;;
20894;SDS011;10607;42.066;24.742;2023-07-20T12:02:56;17.75;;;5.65;;
20894;SDS011;10607;42.066;24.742;2023-07-20T12:05:24;16.65;;;5.18;;
20894;SDS011;10607;42.066;24.742;2023-07-20T12:07:49;12.77;;;5.50;;
20894;SDS011;10607;42.066;24.742;2023-07-20T12:10:15;14.45;;;5.25;;
20894;SDS011;10607;42.066;24.742;2023-07-20T12:12:41;15.02;;;4.63;;
20894;SDS011;10607;42.066;24.742;2023-07-20T12:15:16;11.18;;;4.63;;
20894;SDS011;10607;42.066;24.742;2023-07-20T12:17:45;11.02;;;5.15;;
20894;SDS011;10607;42.066;24.742;2023-07-20T12:20:11;15.15;;;5.00;;
20894;SDS011;10607;42.066;24.742;2023-07-20T12:22:40;16.00;;;4.80;;
20894;SDS011;10607;42.066;24.742;2023-07-20T12:25:08;20.48;;;5.35;;
20894;SDS011;10607;42.066;24.742;2023-07-20T12:27:36;20.13;;;5.22;;
20894;SDS011;10607;42.066;24.742;2023-07-20T12:30:03;10.63;;;5.00;;
20894;SDS011;10607;42.066;24.742;2023-07-20T12:32:29;12.50;;;4.97;;
20894;SDS011;10607;42.066;24.742;2023-07-20T12:34:54;10.85;;;4.78;;
20894;SDS011;10607;42.066;24.742;2023-07-20T12:37:20;10.25;;;4.45;;
20894;SDS011;10607;42.066;24.742;2023-07-20T12:39:45;9.70;;;4.55;;
20894;SDS011;10607;42.066;24.742;2023-07-20T12:42:12;10.35;;;4.07;;
20894;SDS011;10607;42.066;24.742;2023-07-20T12:44:37;14.65;;;4.47;;
20894;SDS011;10607;42.066;24.742;2023-07-20T12:47:02;10.95;;;4.80;;
20894;SDS011;10607;42.066;24.742;2023-07-20T12:49:28;12.77;;;4.18;;
20894;SDS011;10607;42.066;24.742;2023-07-20T12:51:53;25.58;;;4.63;;
20894;SDS011;10607;42.066;24.742;2023-07-20T12:54:18;17.67;;;4.20;;
20894;SDS011;10607;42.066;24.742;2023-07-20T12:56:43;16.40;;;3.88;;
20894;SDS011;10607;42.066;24.742;2023-07-20T12:59:09;19.15;;;4.80;;
20894;SDS011;10607;42.066;24.742;2023-07-20T13:01:34;15.23;;;4.70;;
20894;SDS011;10607;42.066;24.742;2023-07-20T13:03:59;19.13;;;3.97;;
20894;SDS011;10607;42.066;24.742;2023-07-20T13:06:25;12.13;;;4.45;;
20894;SDS011;10607;42.066;24.742;2023-07-20T13:08:50;8.48;;;4.05;;
20894;SDS011;10607;42.066;24.742;2023-07-20T13:11:20;13.10;;;3.30;;
20894;SDS011;10607;42.066;24.742;2023-07-20T13:13:45;27.35;;;4.70;;
20894;SDS011;10607;42.066;24.742;2023-07-20T13:16:11;24.65;;;4.68;;
20894;SDS011;10607;42.066;24.742;2023-07-20T13:18:36;14.23;;;4.32;;
20894;SDS011;10607;42.066;24.742;2023-07-20T13:21:02;12.02;;;4.18;;
20894;SDS011;10607;42.066;24.742;2023-07-20T13:23:27;9.07;;;3.42;;
20894;SDS011;10607;42.066;24.742;2023-07-20T13:25:53;9.02;;;3.90;;
20894;SDS011;10607;42.066;24.742;2023-07-20T13:28:18;13.57;;;4.63;;
20894;SDS011;10607;42.066;24.742;2023-07-20T13:30:43;15.35;;;4.45;;
20894;SDS011;10607;42.066;24.742;2023-07-20T13:33:11;12.75;;;4.10;;
20894;SDS011;10607;42.066;24.742;2023-07-20T13:35:36;12.13;;;4.15;;
20894;SDS011;10607;42.066;24.742;2023-07-20T13:38:01;19.33;;;4.32;;
20894;SDS011;10607;42.066;24.742;2023-07-20T13:40:27;14.52;;;4.10;;
20894;SDS011;10607;42.066;24.742;2023-07-20T13:42:52;15.30;;;4.53;;
20894;SDS011;10607;42.066;24.742;2023-07-20T13:45:17;15.80;;;5.20;;
20894;SDS011;10607;42.066;24.742;2023-07-20T13:47:43;15.23;;;4.40;;
20894;SDS011;10607;42.066;24.742;2023-07-20T13:50:08;13.38;;;4.65;;
20894;SDS011;10607;42.066;24.742;2023-07-20T13:52:33;9.75;;;4.28;;
20894;SDS011;10607;42.066;24.742;2023-07-20T13:55:00;13.88;;;4.90;;
20894;SDS011;10607;42.066;24.742;2023-07-20T13:57:25;13.60;;;5.25;;
20894;SDS011;10607;42.066;24.742;2023-07-20T13:59:50;11.25;;;5.25;;
20894;SDS011;10607;42.066;24.742;2023-07-20T14:02:16;14.55;;;5.72;;
20894;SDS011;10607;42.066;24.742;2023-07-20T14:04:41;19.70;;;5.38;;
20894;SDS011;10607;42.066;24.742;2023-07-20T14:07:06;11.07;;;4.82;;
20894;SDS011;10607;42.066;24.742;2023-07-20T14:09:32;11.32;;;5.25;;
20894;SDS011;10607;42.066;24.742;2023-07-20T14:11:57;13.43;;;5.00;;
20894;SDS011;10607;42.066;24.742;2023-07-20T14:14:23;12.77;;;4.13;;
20894;SDS011;10607;42.066;24.742;2023-07-20T14:16:48;11.82;;;4.45;;
20894;SDS011;10607;42.066;24.742;2023-07-20T14:19:14;14.77;;;4.85;;
20894;SDS011;10607;42.066;24.742;2023-07-20T14:21:39;12.63;;;4.43;;
20894;SDS011;10607;42.066;24.742;2023-07-20T14:24:04;8.25;;;4.50;;
20894;SDS011;10607;42.066;24.742;2023-07-20T14:26:30;16.02;;;5.90;;
20894;SDS011;10607;42.066;24.742;2023-07-20T14:28:55;16.15;;;5.20;;
20894;SDS011;10607;42.066;24.742;2023-07-20T14:31:21;10.38;;;5.07;;
20894;SDS011;10607;42.066;24.742;2023-07-20T14:33:46;11.48;;;4.55;;